Time;durP1;ratioP1;P1;durP2;ratioP2;P2;SDS_P1;SDS_P2;PMS_P1;PMS_P2;Temp;Humidity;BMP_temperature;BMP_pressure;BME280_temperature;BME280_humidity;BME280_pressure;Samples;Min_cycle;Max_cycle;Signal;HPM_P1;HPM_P2
2022/05/29 00:00:05;;;;;;;3.23;2.43;;;;;;;22.71;44.42;101040.50;5035146;28;19959;-41
2022/05/29 00:02:33;;;;;;;3.63;2.35;;;;;;;22.69;44.79;101048.34;5032875;28;20799;-43
2022/05/29 00:04:59;;;;;;;3.13;1.73;;;;;;;22.68;44.72;101030.84;5035199;28;20064;-40
2022/05/29 00:07:24;;;;;;;1.80;1.70;;;;;;;22.64;44.73;101023.81;5034205;28;20033;-41
2022/05/29 00:09:52;;;;;;;3.95;1.85;;;;;;;22.70;44.25;101031.72;5017638;28;20030;-41
2022/05/29 00:12:19;;;;;;;2.22;1.85;;;;;;;22.69;44.65;101032.59;5035227;28;20071;-43
2022/05/29 00:14:47;;;;;;;4.78;2.05;;;;;;;22.69;44.79;101031.72;5015826;28;20037;-45
2022/05/29 00:17:13;;;;;;;3.08;1.80;;;;;;;22.70;44.92;101029.09;5030424;28;20033;-42
2022/05/29 00:19:39;;;;;;;2.03;1.63;;;;;;;22.61;44.57;101013.28;4996530;28;20049;-41
2022/05/29 00:22:04;;;;;;;3.80;2.17;;;;;;;22.69;44.12;101032.59;5033207;28;20033;-43
2022/05/29 00:24:30;;;;;;;4.05;2.17;;;;;;;22.67;44.90;101021.19;5028939;28;20398;-42
2022/05/29 00:26:55;;;;;;;3.78;2.47;;;;;;;22.67;44.97;101021.19;5023752;28;20187;-41
2022/05/29 00:29:21;;;;;;;1.77;1.67;;;;;;;22.62;44.84;101020.28;5031916;28;20454;-43
2022/05/29 00:31:50;;;;;;;2.13;1.92;;;;;;;22.67;44.70;101018.56;5032980;28;20040;-44
2022/05/29 00:34:15;;;;;;;3.83;1.80;;;;;;;22.67;44.92;101023.81;5035407;28;20505;-45
2022/05/29 00:36:42;;;;;;;2.83;2.17;;;;;;;22.67;44.56;101018.56;5032932;28;20108;-40
2022/05/29 00:39:12;;;;;;;4.32;2.05;;;;;;;22.66;44.96;101023.84;5017163;28;20029;-41
2022/05/29 00:41:38;;;;;;;5.43;1.77;;;;;;;22.67;44.63;101017.72;5021034;28;20497;-41
2022/05/29 00:44:12;;;;;;;5.07;2.40;;;;;;;22.67;44.59;101012.47;5034074;28;20481;-43
2022/05/29 00:46:39;;;;;;;3.00;1.70;;;;;;;22.60;44.57;101001.03;5016536;28;20025;-44
2022/05/29 00:49:06;;;;;;;3.72;2.33;;;;;;;22.66;44.15;101016.81;5008538;28;20124;-42
2022/05/29 00:51:38;;;;;;;2.63;2.40;;;;;;;22.66;44.28;101021.22;5016194;28;20467;-42
2022/05/29 00:54:05;;;;;;;2.17;1.98;;;;;;;22.68;44.55;101011.59;5016395;28;20064;-43
2022/05/29 00:56:32;;;;;;;2.22;2.03;;;;;;;22.66;44.67;101006.31;5033442;28;20482;-41
2022/05/29 00:59:01;;;;;;;2.13;1.70;;;;;;;22.64;44.78;101002.81;5015219;28;20069;-42
2022/05/29 01:01:28;;;;;;;6.20;2.13;;;;;;;22.65;44.74;100993.19;5032714;28;20071;-52
2022/05/29 01:03:54;;;;;;;2.80;1.83;;;;;;;22.65;44.57;101004.56;5034133;28;20056;-45
2022/05/29 01:06:20;;;;;;;2.60;2.00;;;;;;;22.66;44.93;101001.06;5033263;28;20030;-45
2022/05/29 01:08:45;;;;;;;6.05;2.47;;;;;;;22.60;44.38;100990.53;5034013;28;20075;-45
2022/05/29 01:11:23;;;;;;;2.00;1.73;;;;;;;22.64;44.62;100992.31;5015785;28;20061;-42
2022/05/29 01:14:32;;;;;;;2.00;1.63;;;;;;;22.64;44.71;100991.44;5014656;28;20806;-45
2022/05/29 01:17:15;;;;;;;3.22;1.98;;;;;;;22.64;44.48;100997.56;4955805;28;20125;-42
2022/05/29 01:19:47;;;;;;;2.05;1.92;;;;;;;22.63;44.44;100995.81;5031925;28;20056;-42
2022/05/29 01:22:18;;;;;;;4.10;1.90;;;;;;;22.59;44.47;100978.28;5015812;28;20082;-43
2022/05/29 01:24:52;;;;;;;2.78;1.95;;;;;;;22.64;44.44;100987.06;5033065;28;20228;-45
2022/05/29 01:27:48;;;;;;;3.70;1.80;;;;;;;22.63;44.31;100987.94;5032912;28;20466;-41
2022/05/29 01:30:17;;;;;;;5.88;2.55;;;;;;;22.57;44.61;100970.41;5067898;22;20121;-51
2022/05/29 01:33:11;;;;;;;6.13;2.10;;;;;;;22.64;44.36;100981.81;5015225;28;20470;-47
2022/05/29 01:35:44;;;;;;;5.85;2.05;;;;;;;22.64;44.28;100987.06;5030145;28;20021;-49
2022/05/29 01:38:15;;;;;;;4.30;1.80;;;;;;;22.62;44.07;100978.28;4998189;28;20040;-50
2022/05/29 01:40:41;;;;;;;3.08;1.92;;;;;;;22.63;44.33;100985.31;5015664;28;20037;-48
2022/05/29 01:43:23;;;;;;;4.13;2.33;;;;;;;22.62;44.26;100986.16;5016024;28;20458;-50
2022/05/29 01:45:57;;;;;;;2.22;1.63;;;;;;;22.62;44.28;100980.91;5015702;28;20455;-51
2022/05/29 01:48:49;;;;;;;3.53;2.30;;;;;;;22.63;44.26;100980.06;5013538;28;20091;-50
2022/05/29 01:51:23;;;;;;;2.15;1.98;;;;;;;22.63;44.07;100984.44;5012405;28;20025;-52
2022/05/29 01:53:54;;;;;;;2.95;2.08;;;;;;;22.61;44.52;100976.53;5015260;28;20051;-52
2022/05/29 01:56:23;;;;;;;6.18;2.53;;;;;;;22.61;44.25;100976.53;4986727;28;20115;-50
2022/05/29 01:58:58;;;;;;;3.15;1.88;;;;;;;22.62;44.20;100973.03;5010473;28;20030;-49
2022/05/29 02:01:29;;;;;;;2.63;2.05;;;;;;;22.61;44.33;100974.81;4998355;28;20044;-48
2022/05/29 02:03:56;;;;;;;1.58;1.48;;;;;;;22.61;44.31;100968.66;5014399;28;20641;-49
2022/05/29 02:07:47;;;;;;;5.32;2.28;;;;;;;22.61;44.31;100971.28;4998246;28;20120;-51
2022/05/29 02:09:18;;;;;;;3.72;2.75;;;;;;;22.51;44.39;100953.75;5016174;28;20029;-49
2022/05/29 02:11:49;;;;;;;3.13;2.35;;;;;;;22.60;44.14;100964.28;5011311;28;20038;-46
2022/05/29 02:14:19;;;;;;;3.63;2.28;;;;;;;22.61;44.33;100966.03;5015899;28;20058;-52
2022/05/29 02:16:54;;;;;;;1.50;1.40;;;;;;;22.60;44.34;100954.69;5014899;28;20041;-50
2022/05/29 02:19:34;;;;;;;4.20;1.40;;;;;;;22.59;44.32;100962.53;4981956;28;20117;-50
2022/05/29 02:22:03;;;;;;;1.98;1.85;;;;;;;22.59;43.83;100962.53;5016789;28;20021;-48
2022/05/29 02:24:34;;;;;;;1.25;1.25;;;;;;;22.59;44.28;100957.28;5032577;28;20124;-47
2022/05/29 02:27:06;;;;;;;5.93;2.15;;;;;;;22.60;44.04;100959.94;4998239;28;20032;-50
2022/05/29 02:29:32;;;;;;;4.53;2.30;;;;;;;22.60;44.15;100956.41;5030001;28;20025;-50
2022/05/29 02:32:25;;;;;;;2.33;1.80;;;;;;;22.60;44.04;100953.78;5014514;28;20124;-50
2022/05/29 02:35:05;;;;;;;3.08;2.58;;;;;;;22.53;44.07;100936.25;4999542;28;20037;-48
2022/05/29 02:37:59;;;;;;;8.35;2.38;;;;;;;22.60;44.08;100943.28;5014138;28;20048;-51
2022/05/29 02:41:09;;;;;;;3.03;2.55;;;;;;;22.59;43.98;100944.16;5020429;28;20057;-48
2022/05/29 02:43:58;;;;;;;4.22;2.58;;;;;;;22.60;43.86;100938.03;5022947;28;20046;-46
2022/05/29 02:46:46;;;;;;;3.33;2.42;;;;;;;22.59;43.88;100936.28;5012563;28;20072;-50
2022/05/29 02:49:30;;;;;;;2.50;2.10;;;;;;;22.52;43.86;100918.75;5031286;28;20048;-48
2022/05/29 02:51:59;;;;;;;3.58;2.33;;;;;;;22.59;43.40;100931.03;5014664;28;20088;-52
2022/05/29 02:54:27;;;;;;;1.65;1.55;;;;;;;22.58;43.95;100930.19;5014482;28;20021;-48
2022/05/29 02:56:53;;;;;;;7.82;2.22;;;;;;;22.58;43.72;100929.28;5014378;28;20120;-50
2022/05/29 02:59:24;;;;;;;3.30;2.10;;;;;;;22.58;43.75;100929.28;5013627;28;20029;-49
2022/05/29 03:02:06;;;;;;;5.30;1.73;;;;;;;22.51;43.94;100917.00;5014582;28;20033;-49
2022/05/29 03:05:07;;;;;;;5.00;2.42;;;;;;;22.58;43.84;100929.28;4998037;28;20034;-50
2022/05/29 03:07:46;;;;;;;3.60;1.80;;;;;;;22.58;43.67;100918.78;4958926;28;20036;-48
2022/05/29 03:10:26;;;;;;;4.97;2.00;;;;;;;22.58;44.29;100924.94;5017608;28;20052;-45
2022/05/29 03:13:07;;;;;;;7.85;2.35;;;;;;;22.59;44.15;100925.78;4997467;28;20116;-49
2022/05/29 03:16:03;;;;;;;3.00;2.80;;;;;;;22.58;43.78;100924.03;5030460;28;20044;-50
2022/05/29 03:18:50;;;;;;;2.38;2.03;;;;;;;22.58;43.79;100931.91;4986697;28;20368;-49
2022/05/29 03:21:25;;;;;;;5.70;2.17;;;;;;;22.57;43.80;100927.53;4996418;28;20467;-47
2022/05/29 03:24:08;;;;;;;2.30;1.98;;;;;;;22.58;43.99;100918.78;5031319;28;20474;-50
2022/05/29 03:27:01;;;;;;;2.83;2.20;;;;;;;22.56;43.68;100921.41;5009765;28;20038;-48
2022/05/29 03:30:28;;;;;;;2.00;1.80;;;;;;;22.58;43.36;100919.69;5010051;28;20052;-50
2022/05/29 03:33:01;;;;;;;1.67;1.40;;;;;;;22.56;43.68;100921.41;4965188;28;20043;-52
2022/05/29 03:35:35;;;;;;;2.75;1.65;;;;;;;22.56;43.80;100917.91;4970229;28;20029;-48
2022/05/29 03:38:03;;;;;;;3.95;2.40;;;;;;;22.55;43.43;100921.41;5013168;28;20133;-51
2022/05/29 03:40:30;;;;;;;4.35;2.25;;;;;;;22.56;43.40;100920.53;5013797;28;20033;-52
2022/05/29 03:42:56;;;;;;;7.50;2.20;;;;;;;22.58;43.55;100929.28;5010419;28;20372;-53
2022/05/29 03:45:22;;;;;;;3.15;2.03;;;;;;;22.56;43.41;100915.28;5010812;28;20041;-50
2022/05/29 03:47:47;;;;;;;3.08;2.05;;;;;;;22.56;43.41;100915.28;5029632;28;20040;-53
2022/05/29 03:50:16;;;;;;;3.33;1.85;;;;;;;22.55;43.43;100919.66;5014298;28;20040;-55
2022/05/29 03:52:42;;;;;;;2.33;1.95;;;;;;;22.56;43.41;100912.66;5013136;28;20087;-51
2022/05/29 03:55:08;;;;;;;2.10;1.88;;;;;;;22.56;43.55;100915.28;5013576;28;20040;-50
2022/05/29 03:57:33;;;;;;;1.35;1.30;;;;;;;22.57;43.75;100922.28;5028391;28;20108;-51
2022/05/29 03:59:59;;;;;;;6.90;2.50;;;;;;;22.54;43.42;100911.78;4993412;28;20141;-49
2022/05/29 04:02:27;;;;;;;6.15;2.42;;;;;;;22.55;43.42;100910.91;5012019;28;20048;-50
2022/05/29 04:04:52;;;;;;;5.97;2.13;;;;;;;22.51;43.61;100906.50;5013204;28;20769;-47
2022/05/29 04:07:17;;;;;;;6.55;2.08;;;;;;;22.54;43.48;100911.78;5013708;28;20029;-50
2022/05/29 04:12:29;;;;;;;4.63;2.22;;;;;;;22.53;43.40;100904.75;5015664;28;20024;-48
2022/05/29 04:14:55;;;;;;;2.72;1.90;;;;;;;22.54;43.33;100907.41;5013213;28;20467;-51
2022/05/29 04:17:20;;;;;;;2.67;1.70;;;;;;;22.54;43.21;100907.41;4996315;28;20516;-49
2022/05/29 04:19:46;;;;;;;2.65;2.45;;;;;;;22.55;43.55;100908.28;5033458;28;20061;-53
2022/05/29 04:22:20;;;;;;;4.90;2.42;;;;;;;22.54;43.32;100906.53;5001341;28;20099;-50
2022/05/29 04:24:45;;;;;;;1.70;1.60;;;;;;;22.53;43.26;100899.50;5016958;28;20041;-51
2022/05/29 04:27:13;;;;;;;2.53;1.77;;;;;;;22.55;42.92;100908.28;5015707;28;20029;-46
2022/05/29 04:29:41;;;;;;;2.28;1.92;;;;;;;22.55;43.33;100905.66;5017656;28;20359;-50
2022/05/29 04:34:55;;;;;;;2.33;2.13;;;;;;;22.55;43.36;100908.28;5017544;28;20036;-46
2022/05/29 04:37:24;;;;;;;2.55;2.33;;;;;;;22.52;43.30;100898.66;5016296;28;20035;-49
2022/05/29 04:39:49;;;;;;;1.98;1.50;;;;;;;22.55;43.16;100897.78;5015999;28;20087;-49
2022/05/29 04:42:14;;;;;;;2.38;1.73;;;;;;;22.55;43.16;100903.03;5000484;28;20449;-50
2022/05/29 04:44:40;;;;;;;4.63;2.08;;;;;;;22.55;43.50;100903.03;5017119;28;20432;-47
2022/05/29 04:47:05;;;;;;;1.55;1.45;;;;;;;22.56;43.22;100894.28;5034220;28;20502;-52
2022/05/29 04:49:31;;;;;;;3.22;1.58;;;;;;;22.55;43.10;100897.78;4999921;28;20036;-51
2022/05/29 04:51:57;;;;;;;1.50;1.40;;;;;;;22.53;43.29;100894.25;4999792;28;20083;-46
2022/05/29 04:54:22;;;;;;;3.28;1.67;;;;;;;22.54;43.41;100896.03;5033878;28;20034;-51
2022/05/29 04:56:49;;;;;;;3.05;2.00;;;;;;;22.55;43.32;100897.78;5000354;28;20029;-47
2022/05/29 04:59:14;;;;;;;2.75;1.63;;;;;;;22.53;43.21;100895.16;5033254;28;20072;-50
2022/05/29 05:01:40;;;;;;;5.55;2.33;;;;;;;22.53;43.20;100891.66;5015604;28;20069;-46
2022/05/29 05:04:05;;;;;;;3.03;2.13;;;;;;;22.55;43.43;100892.53;5033493;28;20061;-50
2022/05/29 05:06:31;;;;;;;2.30;2.10;;;;;;;22.52;43.40;100888.16;5030740;28;20029;-52
2022/05/29 05:08:56;;;;;;;2.42;2.20;;;;;;;22.53;43.27;100889.03;5007253;28;20029;-50
2022/05/29 05:11:21;;;;;;;4.18;2.05;;;;;;;22.55;43.24;100887.28;4999643;28;20033;-54
2022/05/29 05:13:47;;;;;;;6.43;2.10;;;;;;;22.50;43.17;100875.88;5016186;28;20430;-51
2022/05/29 05:16:12;;;;;;;2.50;1.80;;;;;;;22.55;43.35;100887.28;4996538;28;20030;-48
2022/05/29 05:18:38;;;;;;;2.55;1.98;;;;;;;22.54;43.10;100890.78;5014859;28;20029;-51
2022/05/29 05:21:05;;;;;;;2.05;1.50;;;;;;;22.53;43.27;100887.28;5015697;28;20032;-50
2022/05/29 05:23:31;;;;;;;2.10;1.77;;;;;;;22.53;43.23;100883.78;5032920;28;20033;-49
2022/05/29 05:25:56;;;;;;;3.10;2.05;;;;;;;22.53;42.93;100881.16;5015830;28;20067;-49
2022/05/29 05:28:21;;;;;;;3.53;2.25;;;;;;;22.54;43.23;100890.78;5033413;28;20021;-48
2022/05/29 05:30:48;;;;;;;4.15;1.70;;;;;;;22.55;43.17;100889.91;5013993;28;20052;-51
2022/05/29 05:33:14;;;;;;;5.22;1.65;;;;;;;22.55;43.43;100884.66;5014169;28;20037;-49
2022/05/29 05:35:39;;;;;;;5.57;1.40;;;;;;;22.54;43.37;100885.53;5011811;28;20063;-52
2022/05/29 05:38:06;;;;;;;6.22;2.00;;;;;;;22.55;42.86;100887.28;5033508;28;20075;-50
2022/05/29 05:40:31;;;;;;;1.88;1.73;;;;;;;22.50;43.12;100879.41;5015116;28;20065;-48
2022/05/29 05:42:56;;;;;;;2.40;1.67;;;;;;;22.56;43.06;100883.78;4995800;28;20139;-51
2022/05/29 05:45:22;;;;;;;2.45;2.15;;;;;;;22.56;43.12;100883.78;4998673;28;20040;-49
2022/05/29 05:47:47;;;;;;;2.58;1.98;;;;;;;22.57;43.42;100890.78;5014980;28;20494;-49
2022/05/29 05:50:15;;;;;;;6.45;2.10;;;;;;;22.56;43.31;100889.03;4999131;28;20072;-48
2022/05/29 05:52:41;;;;;;;2.75;2.30;;;;;;;22.55;43.11;100887.28;5005929;28;20386;-49
2022/05/29 05:55:10;;;;;;;2.28;1.50;;;;;;;22.56;43.34;100889.03;4997763;28;20033;-50
2022/05/29 05:57:36;;;;;;;2.13;1.77;;;;;;;22.56;43.22;100891.66;5015514;28;20033;-53
2022/05/29 06:00:04;;;;;;;3.13;2.25;;;;;;;22.56;43.15;100891.66;5014479;28;20029;-48
2022/05/29 06:02:29;;;;;;;3.28;1.85;;;;;;;22.55;43.03;100887.28;4998624;28;20033;-51
2022/05/29 06:04:54;;;;;;;2.17;1.83;;;;;;;22.55;43.22;100895.16;4999199;28;20621;-49
2022/05/29 06:07:20;;;;;;;5.32;2.33;;;;;;;22.56;43.09;100899.53;5014393;28;20453;-49
2022/05/29 06:09:45;;;;;;;2.45;2.03;;;;;;;22.55;43.24;100892.53;5032971;28;20030;-47
2022/05/29 06:12:10;;;;;;;9.32;2.40;;;;;;;22.57;43.34;100896.03;5032819;28;20377;-46
2022/05/29 06:14:36;;;;;;;1.70;1.60;;;;;;;22.50;43.00;100883.75;5013832;28;20026;-49
2022/05/29 06:17:03;;;;;;;2.88;2.35;;;;;;;22.58;43.46;100892.53;5014651;28;20091;-50
2022/05/29 06:19:28;;;;;;;1.90;1.58;;;;;;;22.52;43.03;100887.25;5013867;28;20132;-52
2022/05/29 06:21:54;;;;;;;3.25;1.77;;;;;;;22.58;43.40;100892.53;5011362;28;20197;-50
2022/05/29 06:24:19;;;;;;;4.53;2.17;;;;;;;22.59;43.32;100899.53;5011481;28;20045;-46
2022/05/29 06:26:45;;;;;;;2.05;1.83;;;;;;;22.58;43.12;100897.78;4996843;28;20403;-46
2022/05/29 06:29:10;;;;;;;2.60;1.85;;;;;;;22.60;43.03;100906.53;5029723;28;20029;-52
2022/05/29 06:31:36;;;;;;;2.67;1.40;;;;;;;22.59;42.95;100899.53;5014382;28;20035;-46
2022/05/29 06:34:01;;;;;;;2.22;1.65;;;;;;;22.60;42.98;100902.19;5031728;28;20463;-49
2022/05/29 06:36:27;;;;;;;2.60;2.05;;;;;;;22.58;42.97;100892.53;4997466;28;20509;-50
2022/05/29 06:38:55;;;;;;;1.83;1.25;;;;;;;22.61;43.47;100897.78;5014467;28;20041;-52
2022/05/29 06:41:22;;;;;;;2.28;2.08;;;;;;;22.60;43.49;100896.03;5013552;28;20119;-51
2022/05/29 06:43:52;;;;;;;4.18;1.85;;;;;;;22.42;43.29;100866.19;5015004;28;20450;-53
2022/05/29 06:46:18;;;;;;;2.47;1.65;;;;;;;22.59;43.07;100894.28;4994445;28;20528;-51
2022/05/29 06:48:44;;;;;;;2.42;1.70;;;;;;;22.61;42.92;100903.03;5011187;28;20382;-48
2022/05/29 06:51:15;;;;;;;1.77;1.67;;;;;;;22.61;43.19;100905.66;5009151;28;20140;-49
2022/05/29 06:53:41;;;;;;;2.53;1.80;;;;;;;22.61;42.82;100897.78;4998818;28;20041;-49
2022/05/29 06:56:08;;;;;;;1.88;1.70;;;;;;;22.61;43.11;100892.53;5008273;28;20397;-48
2022/05/29 06:58:34;;;;;;;1.70;1.60;;;;;;;22.59;43.22;100900.44;5007252;28;20108;-47
2022/05/29 07:09:21;;;;;;;1.70;1.60;;;;;;;22.57;43.09;100896.03;5012646;28;20040;-49
2022/05/29 07:11:48;;;;;;;3.88;1.77;;;;;;;22.60;42.87;100901.28;4997563;28;20394;-45
2022/05/29 07:14:15;;;;;;;1.30;1.20;;;;;;;22.58;42.69;100900.41;5031644;28;20037;-53
2022/05/29 07:16:40;;;;;;;5.32;2.42;;;;;;;22.60;43.11;100906.53;5013715;28;20514;-47
2022/05/29 07:19:06;;;;;;;1.60;1.50;;;;;;;22.60;43.49;100896.03;5013893;28;20036;-48
2022/05/29 07:21:36;;;;;;;7.90;1.90;;;;;;;22.60;43.27;100899.56;5012165;28;20025;-46
2022/05/29 07:24:02;;;;;;;3.30;1.77;;;;;;;22.59;43.17;100903.06;5014855;28;20363;-50
2022/05/29 07:26:27;;;;;;;3.20;1.70;;;;;;;22.59;43.07;100894.28;5041204;28;20055;-51
2022/05/29 07:28:53;;;;;;;4.05;1.08;;;;;;;22.60;43.39;100899.56;5024508;28;20037;-48
2022/05/29 07:31:19;;;;;;;1.92;1.83;;;;;;;22.58;42.94;100892.53;5033245;28;20083;-49
2022/05/29 07:33:44;;;;;;;2.67;2.00;;;;;;;22.59;42.93;100894.28;5017399;28;20087;-46
2022/05/29 07:36:10;;;;;;;3.63;1.23;;;;;;;22.60;43.20;100893.41;4998526;28;20033;-52
2022/05/29 07:38:37;;;;;;;1.58;1.48;;;;;;;22.60;42.87;100901.28;5021469;28;20037;-52
2022/05/29 07:43:18;;;;;;;1.85;1.35;;;;;;;22.60;42.90;100898.66;5019289;28;20056;-49
2022/05/29 07:43:47;;;;;;;2.25;1.80;;;;;;;22.61;43.17;100897.78;5017440;28;20072;-52
2022/05/29 07:46:13;;;;;;;3.42;2.15;;;;;;;22.49;42.03;100903.00;5030261;28;20229;-53
2022/05/29 07:48:38;;;;;;;5.97;1.80;;;;;;;22.46;42.71;100899.50;5016382;28;20048;-52
2022/05/29 07:51:04;;;;;;;1.75;1.63;;;;;;;22.52;43.25;100897.75;5006758;28;20116;-51
2022/05/29 07:53:32;;;;;;;2.70;1.55;;;;;;;22.55;43.04;100897.78;5004307;28;20088;-51
2022/05/29 07:55:57;;;;;;;3.53;1.73;;;;;;;22.61;42.95;100900.41;5033108;28;20483;-52
2022/05/29 07:58:23;;;;;;;3.67;2.13;;;;;;;22.65;42.96;100899.56;5015628;28;20031;-50
2022/05/29 08:00:49;;;;;;;3.10;1.88;;;;;;;22.70;43.21;100899.59;5017258;28;20121;-51
2022/05/29 08:03:14;;;;;;;2.13;1.92;;;;;;;22.76;42.93;100900.47;5022687;28;20034;-53
2022/05/29 08:05:39;;;;;;;3.95;1.75;;;;;;;22.75;43.37;100885.59;5001699;28;20433;-52
2022/05/29 08:08:11;;;;;;;2.25;1.60;;;;;;;22.83;43.00;100887.38;5020512;28;20104;-50
2022/05/29 08:10:40;;;;;;;3.53;1.73;;;;;;;22.87;43.34;100894.38;5014841;28;20381;-51
2022/05/29 08:13:07;;;;;;;7.22;2.40;;;;;;;22.90;43.02;100902.28;5023856;28;20490;-54
2022/05/29 08:15:36;;;;;;;8.20;1.60;;;;;;;22.95;43.15;100903.16;5012270;28;20046;-50
2022/05/29 08:18:02;;;;;;;1.75;1.65;;;;;;;23.02;43.36;100901.41;5022752;28;20025;-47
2022/05/29 08:20:36;;;;;;;2.33;1.63;;;;;;;23.05;43.34;100902.31;5018848;28;20038;-48
2022/05/29 08:23:02;;;;;;;1.75;1.60;;;;;;;23.05;43.21;100904.94;5032272;28;20033;-49
2022/05/29 08:30:55;;;;;;;4.07;2.83;;;;;;;19.98;44.45;100891.88;5021660;28;20045;-51
2022/05/29 08:33:26;;;;;;;4.82;2.60;;;;;;;19.70;44.92;100897.53;5025871;28;20056;-63
2022/05/29 08:36:14;;;;;;;6.65;2.53;;;;;;;19.49;45.23;100903.28;5016874;28;20076;-56
2022/05/29 08:38:43;;;;;;;4.57;2.42;;;;;;;19.40;45.58;100897.91;5025404;28;20044;-54
2022/05/29 08:41:40;;;;;;;4.07;2.47;;;;;;;19.34;45.86;100903.03;5046703;28;20036;-60
2022/05/29 08:44:45;;;;;;;5.43;2.53;;;;;;;19.21;46.24;100908.03;5009374;28;20033;-59
2022/05/29 08:47:11;;;;;;;9.95;3.08;;;;;;;18.72;47.54;100899.25;5023849;28;20029;-53
2022/05/29 08:49:45;;;;;;;3.95;2.25;;;;;;;19.89;45.91;100896.94;5013551;28;20471;-62
2022/05/29 08:52:35;;;;;;;6.95;2.35;;;;;;;20.58;45.05;100878.69;5008781;28;20033;-62
2022/05/29 08:55:13;;;;;;;3.88;2.40;;;;;;;21.21;43.49;100891.63;5028087;28;20036;-63
2022/05/29 08:58:03;;;;;;;3.88;2.03;;;;;;;21.48;43.18;100890.09;5016821;28;20029;-61
2022/05/29 09:01:06;;;;;;;3.47;2.05;;;;;;;21.71;42.92;100892.03;5034899;28;20423;-59
2022/05/29 09:03:55;;;;;;;6.85;2.70;;;;;;;21.91;42.75;100900.03;5023097;28;20061;-57
2022/05/29 09:06:40;;;;;;;1.67;1.35;;;;;;;21.96;42.73;100887.84;5007121;28;20033;-53
2022/05/29 09:09:24;;;;;;;7.53;2.13;;;;;;;21.96;42.38;100881.72;5021048;28;20037;-53
2022/05/29 09:11:52;;;;;;;2.80;2.22;;;;;;;22.08;42.77;100886.16;5029081;28;20505;-53
2022/05/29 09:14:30;;;;;;;4.45;2.53;;;;;;;22.08;42.96;100892.28;4993620;28;20030;-57
2022/05/29 09:17:03;;;;;;;5.68;2.20;;;;;;;22.10;42.74;100893.19;5027328;28;20018;-56
2022/05/29 09:19:34;;;;;;;7.80;4.05;;;;;;;22.10;42.97;100895.81;5004016;28;20030;-49
2022/05/29 09:22:10;;;;;;;3.17;2.05;;;;;;;22.11;42.54;100891.41;5011491;28;20032;-52
2022/05/29 09:24:50;;;;;;;3.90;2.63;;;;;;;22.13;42.35;100887.94;5006654;28;20030;-49
2022/05/29 09:27:17;;;;;;;3.72;2.28;;;;;;;22.13;42.46;100885.31;5027103;28;20053;-49
2022/05/29 09:29:43;;;;;;;4.95;2.65;;;;;;;22.23;42.45;100885.38;5003577;28;20029;-50
2022/05/29 09:32:14;;;;;;;2.85;1.55;;;;;;;22.20;42.01;100901.09;5014590;28;20048;-54
2022/05/29 09:34:41;;;;;;;9.60;2.75;;;;;;;22.11;42.27;100876.56;5010956;28;20120;-52
2022/05/29 09:37:16;;;;;;;1.50;1.40;;;;;;;22.24;42.42;100892.38;4993020;28;20056;-53
2022/05/29 09:39:43;;;;;;;3.78;2.25;;;;;;;22.22;42.84;100899.34;5015185;28;20188;-51
2022/05/29 09:42:21;;;;;;;5.22;2.67;;;;;;;22.23;42.49;100899.34;5013833;28;20041;-47
2022/05/29 09:45:17;;;;;;;3.20;2.10;;;;;;;22.23;42.28;100895.84;5014859;28;20044;-55
2022/05/29 09:50:45;;;;;;;2.55;1.65;;;;;;;22.23;42.21;100906.34;5008597;28;20121;-50
2022/05/29 09:53:23;;;;;;;1.58;1.48;;;;;;;22.13;42.52;100880.06;4996077;28;20075;-53
2022/05/29 09:56:04;;;;;;;7.00;1.85;;;;;;;22.21;42.59;100900.22;5025206;28;20500;-49
2022/05/29 09:58:52;;;;;;;2.65;1.98;;;;;;;22.24;42.43;100897.63;5020698;28;20025;-49
2022/05/29 10:01:29;;;;;;;6.97;2.40;;;;;;;22.22;42.33;100899.34;5008677;28;20029;-54
2022/05/29 10:03:59;;;;;;;3.25;1.98;;;;;;;22.24;42.35;100897.63;5013775;28;20065;-51
2022/05/29 10:06:29;;;;;;;1.95;1.85;;;;;;;22.24;42.43;100897.63;5030758;28;20067;-54
2022/05/29 10:09:14;;;;;;;5.03;2.05;;;;;;;22.26;42.38;100895.88;5042008;28;20132;-51
2022/05/29 10:11:40;;;;;;;4.80;1.60;;;;;;;22.27;42.75;100892.38;5023410;28;20037;-53
2022/05/29 10:14:47;;;;;;;6.25;2.53;;;;;;;22.26;42.45;100895.88;5039164;28;20033;-50
2022/05/29 10:17:35;;;;;;;7.82;2.78;;;;;;;22.29;42.18;100895.88;5013682;28;20091;-51
2022/05/29 10:20:31;;;;;;;2.40;1.95;;;;;;;22.29;42.22;100895.88;5032286;28;20037;-55
2022/05/29 10:23:09;;;;;;;2.65;1.75;;;;;;;22.30;42.57;100892.41;5015949;28;20108;-54
2022/05/29 10:25:38;;;;;;;2.50;2.10;;;;;;;22.30;42.14;100892.41;5009189;28;20124;-48
2022/05/29 10:28:14;;;;;;;1.98;1.83;;;;;;;22.28;42.21;100888.88;5010265;28;20025;-48
2022/05/29 10:30:49;;;;;;;2.03;1.73;;;;;;;22.30;42.20;100882.78;5034066;28;20021;-51
2022/05/29 10:33:23;;;;;;;4.40;1.17;;;;;;;22.31;42.05;100889.78;4997983;28;20486;-50
2022/05/29 10:35:51;;;;;;;3.30;2.10;;;;;;;22.32;42.37;100886.31;5014323;28;20398;-47
2022/05/29 10:38:19;;;;;;;2.10;1.90;;;;;;;22.34;42.40;100891.53;5011389;28;20101;-52
2022/05/29 10:40:49;;;;;;;2.10;1.90;;;;;;;22.34;42.54;100883.66;5022669;28;20475;-49
2022/05/29 10:43:46;;;;;;;3.15;1.75;;;;;;;22.36;42.59;100892.41;5007075;28;20033;-50
2022/05/29 10:46:21;;;;;;;2.97;2.53;;;;;;;22.42;42.62;100889.81;5005884;28;20064;-50
2022/05/29 10:48:58;;;;;;;5.60;2.45;;;;;;;22.39;42.95;100892.44;5010820;28;20029;-52
2022/05/29 10:51:41;;;;;;;9.02;2.20;;;;;;;22.41;43.16;100884.59;5010672;28;20120;-53
2022/05/29 10:54:44;;;;;;;4.45;2.13;;;;;;;22.40;43.15;100878.44;4991522;28;20112;-51
2022/05/29 10:57:38;;;;;;;2.97;1.83;;;;;;;22.35;43.09;100880.16;5025359;28;20026;-52
2022/05/29 11:00:11;;;;;;;2.63;2.30;;;;;;;22.29;42.74;100874.91;5027545;28;20039;-47
2022/05/29 11:03:19;;;;;;;1.80;1.70;;;;;;;22.37;43.27;100888.06;4996060;28;20450;-50
2022/05/29 11:06:15;;;;;;;2.53;2.00;;;;;;;22.36;42.83;100887.19;5009442;28;20057;-51
2022/05/29 11:08:50;;;;;;;2.00;1.50;;;;;;;22.36;42.89;100887.19;5022871;28;20037;-49
2022/05/29 11:11:46;;;;;;;2.45;1.90;;;;;;;22.34;43.08;100878.41;5023181;28;20124;-49
2022/05/29 11:14:43;;;;;;;2.28;1.92;;;;;;;22.31;42.92;100878.41;5026682;28;20507;-48
2022/05/29 11:17:17;;;;;;;3.15;1.80;;;;;;;22.36;42.97;100883.69;5006616;28;20033;-55
2022/05/29 11:20:18;;;;;;;2.22;1.98;;;;;;;22.38;42.96;100874.06;5021087;28;20034;-55
2022/05/29 11:23:06;;;;;;;3.53;2.20;;;;;;;22.38;43.25;100885.44;5004225;28;20373;-53
2022/05/29 11:25:46;;;;;;;6.10;2.00;;;;;;;22.41;43.83;100885.44;5021363;28;20025;-51
2022/05/29 11:28:53;;;;;;;2.90;2.05;;;;;;;22.38;43.53;100877.56;5006037;28;20037;-53
2022/05/29 11:31:34;;;;;;;3.05;1.50;;;;;;;22.38;43.82;100880.19;5028993;28;20029;-50
2022/05/29 11:34:31;;;;;;;3.20;1.75;;;;;;;22.37;43.45;100878.44;5018105;28;20021;-47
2022/05/29 11:37:02;;;;;;;2.45;1.70;;;;;;;22.37;43.38;100872.31;5035618;28;20496;-52
2022/05/29 11:39:30;;;;;;;1.75;1.65;;;;;;;22.26;43.82;100860.00;5013374;28;20410;-52
2022/05/29 11:42:08;;;;;;;2.10;1.90;;;;;;;22.37;43.63;100878.44;5032571;28;20052;-48
2022/05/29 11:44:45;;;;;;;5.13;2.15;;;;;;;22.41;43.21;100874.94;5018643;28;20057;-48
2022/05/29 11:53:22;;;;;;;2.83;2.03;;;;;;;22.53;43.15;100862.78;5013499;28;20349;-52
2022/05/29 11:55:49;;;;;;;6.00;1.70;;;;;;;22.56;43.40;100873.28;4997312;28;20113;-49
2022/05/29 11:58:21;;;;;;;2.75;1.65;;;;;;;22.58;42.81;100868.91;4996703;28;20036;-47
2022/05/29 12:00:49;;;;;;;3.42;1.80;;;;;;;22.61;43.70;100866.28;5016251;28;20034;-52
2022/05/29 12:03:27;;;;;;;2.47;1.45;;;;;;;22.63;43.56;100867.19;5033921;28;20048;-52
2022/05/29 12:06:09;;;;;;;2.28;1.98;;;;;;;22.65;44.17;100868.06;5015901;28;20041;-55
2022/05/29 12:08:59;;;;;;;1.80;1.70;;;;;;;22.67;43.75;100870.69;5017458;28;20041;-55
2022/05/29 12:11:41;;;;;;;4.25;1.55;;;;;;;22.60;44.53;100860.19;5016007;28;20203;-52
2022/05/29 12:14:19;;;;;;;3.25;1.55;;;;;;;22.59;44.14;100873.28;5002279;28;20030;-47
2022/05/29 12:16:50;;;;;;;4.22;1.75;;;;;;;22.51;44.02;100864.50;5007933;28;20029;-55
2022/05/29 12:19:25;;;;;;;3.65;1.70;;;;;;;22.45;44.72;100861.00;5029740;28;20405;-50